sensor_id;sensor_type;location;lat;lon;timestamp;P1;durP1;ratioP1;P2;durP2;ratioP2
6497;SDS011;3282;48.358;10.958;2022-08-21T00:02:13;5.65;;;3.40;;
6497;SDS011;3282;48.358;10.958;2022-08-21T00:04:41;4.32;;;3.15;;
6497;SDS011;3282;48.358;10.958;2022-08-21T00:07:22;4.70;;;3.10;;
6497;SDS011;3282;48.358;10.958;2022-08-21T00:09:50;5.13;;;3.45;;
6497;SDS011;3282;48.358;10.958;2022-08-21T00:12:17;4.53;;;2.95;;
6497;SDS011;3282;48.358;10.958;2022-08-21T00:14:47;4.07;;;2.85;;
6497;SDS011;3282;48.358;10.958;2022-08-21T00:17:17;4.30;;;3.17;;
6497;SDS011;3282;48.358;10.958;2022-08-21T00:19:43;5.72;;;3.30;;
6497;SDS011;3282;48.358;10.958;2022-08-21T00:22:10;5.82;;;3.08;;
6497;SDS011;3282;48.358;10.958;2022-08-21T00:24:36;4.78;;;2.83;;
6497;SDS011;3282;48.358;10.958;2022-08-21T00:27:03;3.97;;;3.00;;
6497;SDS011;3282;48.358;10.958;2022-08-21T00:29:30;5.60;;;3.45;;
6497;SDS011;3282;48.358;10.958;2022-08-21T00:31:57;6.25;;;3.00;;
6497;SDS011;3282;48.358;10.958;2022-08-21T00:34:24;4.85;;;2.95;;
6497;SDS011;3282;48.358;10.958;2022-08-21T00:36:51;5.30;;;3.35;;
6497;SDS011;3282;48.358;10.958;2022-08-21T00:39:18;4.57;;;3.10;;
6497;SDS011;3282;48.358;10.958;2022-08-21T00:41:44;5.43;;;3.47;;
6497;SDS011;3282;48.358;10.958;2022-08-21T00:44:12;5.22;;;3.70;;
6497;SDS011;3282;48.358;10.958;2022-08-21T00:46:40;5.88;;;3.40;;
6497;SDS011;3282;48.358;10.958;2022-08-21T00:49:11;5.25;;;3.58;;
6497;SDS011;3282;48.358;10.958;2022-08-21T00:54:13;6.45;;;3.80;;
6497;SDS011;3282;48.358;10.958;2022-08-21T00:56:45;6.45;;;3.80;;
6497;SDS011;3282;48.358;10.958;2022-08-21T00:59:14;7.07;;;4.30;;
6497;SDS011;3282;48.358;10.958;2022-08-21T01:01:43;6.78;;;3.80;;
6497;SDS011;3282;48.358;10.958;2022-08-21T01:04:09;6.78;;;3.67;;
6497;SDS011;3282;48.358;10.958;2022-08-21T01:06:37;6.38;;;4.43;;
6497;SDS011;3282;48.358;10.958;2022-08-21T01:09:04;7.25;;;3.63;;
6497;SDS011;3282;48.358;10.958;2022-08-21T01:11:30;5.32;;;3.33;;
6497;SDS011;3282;48.358;10.958;2022-08-21T01:13:57;4.70;;;2.92;;
6497;SDS011;3282;48.358;10.958;2022-08-21T01:16:24;4.35;;;3.22;;
6497;SDS011;3282;48.358;10.958;2022-08-21T01:18:51;5.20;;;2.80;;
6497;SDS011;3282;48.358;10.958;2022-08-21T01:21:19;5.00;;;3.10;;
6497;SDS011;3282;48.358;10.958;2022-08-21T01:23:54;3.72;;;2.90;;
6497;SDS011;3282;48.358;10.958;2022-08-21T01:26:27;4.85;;;3.17;;
6497;SDS011;3282;48.358;10.958;2022-08-21T01:29:06;10.52;;;4.20;;
6497;SDS011;3282;48.358;10.958;2022-08-21T01:31:38;7.38;;;2.88;;
6497;SDS011;3282;48.358;10.958;2022-08-21T01:34:05;4.55;;;3.28;;
6497;SDS011;3282;48.358;10.958;2022-08-21T01:36:33;6.93;;;3.40;;
6497;SDS011;3282;48.358;10.958;2022-08-21T01:39:00;3.88;;;2.78;;
6497;SDS011;3282;48.358;10.958;2022-08-21T01:41:27;5.78;;;3.30;;
6497;SDS011;3282;48.358;10.958;2022-08-21T01:43:54;5.10;;;3.28;;
6497;SDS011;3282;48.358;10.958;2022-08-21T01:46:20;3.92;;;2.80;;
6497;SDS011;3282;48.358;10.958;2022-08-21T01:48:47;5.45;;;2.88;;
6497;SDS011;3282;48.358;10.958;2022-08-21T01:51:16;5.85;;;3.03;;
6497;SDS011;3282;48.358;10.958;2022-08-21T01:53:43;5.72;;;3.17;;
6497;SDS011;3282;48.358;10.958;2022-08-21T01:56:11;5.50;;;2.60;;
6497;SDS011;3282;48.358;10.958;2022-08-21T01:58:40;7.10;;;3.58;;
6497;SDS011;3282;48.358;10.958;2022-08-21T02:01:08;6.20;;;2.55;;
6497;SDS011;3282;48.358;10.958;2022-08-21T02:03:35;5.30;;;2.97;;
6497;SDS011;3282;48.358;10.958;2022-08-21T02:06:03;7.00;;;2.95;;
6497;SDS011;3282;48.358;10.958;2022-08-21T02:08:31;6.20;;;3.13;;
6497;SDS011;3282;48.358;10.958;2022-08-21T02:10:58;6.63;;;3.83;;
6497;SDS011;3282;48.358;10.958;2022-08-21T02:13:25;3.40;;;2.67;;
6497;SDS011;3282;48.358;10.958;2022-08-21T02:15:52;4.47;;;3.20;;
6497;SDS011;3282;48.358;10.958;2022-08-21T02:18:19;5.32;;;2.88;;
6497;SDS011;3282;48.358;10.958;2022-08-21T02:20:46;4.07;;;2.90;;
6497;SDS011;3282;48.358;10.958;2022-08-21T02:23:22;5.13;;;3.05;;
6497;SDS011;3282;48.358;10.958;2022-08-21T02:26:00;5.00;;;3.20;;
6497;SDS011;3282;48.358;10.958;2022-08-21T02:28:29;5.32;;;3.15;;
6497;SDS011;3282;48.358;10.958;2022-08-21T02:30:56;7.43;;;3.42;;
6497;SDS011;3282;48.358;10.958;2022-08-21T02:33:23;4.70;;;3.00;;
6497;SDS011;3282;48.358;10.958;2022-08-21T02:35:53;4.20;;;3.30;;
6497;SDS011;3282;48.358;10.958;2022-08-21T02:38:22;6.03;;;3.50;;
6497;SDS011;3282;48.358;10.958;2022-08-21T02:40:53;5.95;;;3.40;;
6497;SDS011;3282;48.358;10.958;2022-08-21T02:43:21;4.35;;;3.40;;
6497;SDS011;3282;48.358;10.958;2022-08-21T02:45:50;5.03;;;3.67;;
6497;SDS011;3282;48.358;10.958;2022-08-21T02:48:20;4.88;;;3.00;;
6497;SDS011;3282;48.358;10.958;2022-08-21T02:50:56;5.35;;;3.42;;
6497;SDS011;3282;48.358;10.958;2022-08-21T02:53:25;3.88;;;3.00;;
6497;SDS011;3282;48.358;10.958;2022-08-21T02:55:53;5.82;;;3.63;;
6497;SDS011;3282;48.358;10.958;2022-08-21T02:58:21;5.93;;;3.88;;
6497;SDS011;3282;48.358;10.958;2022-08-21T03:00:50;5.93;;;3.38;;
6497;SDS011;3282;48.358;10.958;2022-08-21T03:03:18;6.15;;;3.10;;
6497;SDS011;3282;48.358;10.958;2022-08-21T03:05:47;4.70;;;3.47;;
6497;SDS011;3282;48.358;10.958;2022-08-21T03:08:17;7.03;;;4.03;;
6497;SDS011;3282;48.358;10.958;2022-08-21T03:10:46;7.07;;;3.53;;
6497;SDS011;3282;48.358;10.958;2022-08-21T03:13:14;7.47;;;3.60;;
6497;SDS011;3282;48.358;10.958;2022-08-21T03:15:42;5.10;;;3.67;;
6497;SDS011;3282;48.358;10.958;2022-08-21T03:18:10;6.13;;;3.78;;
6497;SDS011;3282;48.358;10.958;2022-08-21T03:20:38;5.75;;;4.20;;
6497;SDS011;3282;48.358;10.958;2022-08-21T03:23:07;5.55;;;3.63;;
6497;SDS011;3282;48.358;10.958;2022-08-21T03:25:44;5.13;;;3.60;;
6497;SDS011;3282;48.358;10.958;2022-08-21T03:28:13;6.47;;;4.22;;
6497;SDS011;3282;48.358;10.958;2022-08-21T03:30:42;5.30;;;3.65;;
6497;SDS011;3282;48.358;10.958;2022-08-21T03:33:10;7.00;;;3.72;;
6497;SDS011;3282;48.358;10.958;2022-08-21T03:35:40;5.80;;;3.80;;
6497;SDS011;3282;48.358;10.958;2022-08-21T03:38:11;5.03;;;3.65;;
6497;SDS011;3282;48.358;10.958;2022-08-21T03:40:39;7.95;;;4.28;;
6497;SDS011;3282;48.358;10.958;2022-08-21T03:43:07;7.50;;;4.03;;
6497;SDS011;3282;48.358;10.958;2022-08-21T03:45:36;9.57;;;4.28;;
6497;SDS011;3282;48.358;10.958;2022-08-21T03:48:04;6.07;;;4.10;;
6497;SDS011;3282;48.358;10.958;2022-08-21T03:50:34;5.75;;;3.80;;
6497;SDS011;3282;48.358;10.958;2022-08-21T03:53:07;5.55;;;2.88;;
6497;SDS011;3282;48.358;10.958;2022-08-21T03:55:42;4.10;;;3.08;;
6497;SDS011;3282;48.358;10.958;2022-08-21T03:58:10;4.65;;;3.40;;
6497;SDS011;3282;48.358;10.958;2022-08-21T04:00:43;5.67;;;3.00;;
6497;SDS011;3282;48.358;10.958;2022-08-21T04:03:11;4.45;;;3.00;;
6497;SDS011;3282;48.358;10.958;2022-08-21T04:05:38;6.95;;;3.20;;
6497;SDS011;3282;48.358;10.958;2022-08-21T04:08:05;4.68;;;2.95;;
6497;SDS011;3282;48.358;10.958;2022-08-21T04:10:34;6.70;;;3.35;;
6497;SDS011;3282;48.358;10.958;2022-08-21T04:13:02;5.55;;;2.83;;
6497;SDS011;3282;48.358;10.958;2022-08-21T04:15:30;5.45;;;3.65;;
6497;SDS011;3282;48.358;10.958;2022-08-21T04:17:57;5.95;;;3.30;;
6497;SDS011;3282;48.358;10.958;2022-08-21T04:20:24;5.60;;;3.50;;
6497;SDS011;3282;48.358;10.958;2022-08-21T04:22:51;4.78;;;3.47;;
6497;SDS011;3282;48.358;10.958;2022-08-21T04:25:19;5.05;;;3.63;;
6497;SDS011;3282;48.358;10.958;2022-08-21T04:27:48;6.40;;;3.95;;
6497;SDS011;3282;48.358;10.958;2022-08-21T04:30:15;4.63;;;3.30;;
6497;SDS011;3282;48.358;10.958;2022-08-21T04:32:43;6.53;;;3.85;;
6497;SDS011;3282;48.358;10.958;2022-08-21T04:35:22;8.75;;;3.78;;
6497;SDS011;3282;48.358;10.958;2022-08-21T04:37:49;4.38;;;2.90;;
6497;SDS011;3282;48.358;10.958;2022-08-21T04:40:17;7.82;;;3.05;;
6497;SDS011;3282;48.358;10.958;2022-08-21T04:42:49;7.47;;;3.15;;
6497;SDS011;3282;48.358;10.958;2022-08-21T04:45:25;4.53;;;2.97;;
6497;SDS011;3282;48.358;10.958;2022-08-21T04:50:31;4.10;;;3.15;;
6497;SDS011;3282;48.358;10.958;2022-08-21T04:53:03;5.32;;;3.50;;
6497;SDS011;3282;48.358;10.958;2022-08-21T04:55:33;5.93;;;3.50;;
6497;SDS011;3282;48.358;10.958;2022-08-21T04:58:00;6.00;;;3.40;;
6497;SDS011;3282;48.358;10.958;2022-08-21T05:00:27;6.22;;;3.67;;
6497;SDS011;3282;48.358;10.958;2022-08-21T05:02:54;5.10;;;3.10;;
6497;SDS011;3282;48.358;10.958;2022-08-21T05:05:27;5.93;;;2.97;;
6497;SDS011;3282;48.358;10.958;2022-08-21T05:07:55;4.88;;;3.00;;
6497;SDS011;3282;48.358;10.958;2022-08-21T05:10:24;7.13;;;3.30;;
6497;SDS011;3282;48.358;10.958;2022-08-21T05:12:51;4.72;;;2.20;;
6497;SDS011;3282;48.358;10.958;2022-08-21T05:15:19;4.30;;;2.70;;
6497;SDS011;3282;48.358;10.958;2022-08-21T05:17:46;4.05;;;2.47;;
6497;SDS011;3282;48.358;10.958;2022-08-21T05:20:25;5.43;;;2.63;;
6497;SDS011;3282;48.358;10.958;2022-08-21T05:22:52;4.18;;;2.80;;
6497;SDS011;3282;48.358;10.958;2022-08-21T05:25:19;4.43;;;2.80;;
6497;SDS011;3282;48.358;10.958;2022-08-21T05:27:48;4.47;;;2.58;;
6497;SDS011;3282;48.358;10.958;2022-08-21T05:30:17;4.22;;;2.53;;
6497;SDS011;3282;48.358;10.958;2022-08-21T05:32:45;3.90;;;2.50;;
6497;SDS011;3282;48.358;10.958;2022-08-21T05:35:15;3.85;;;2.35;;
6497;SDS011;3282;48.358;10.958;2022-08-21T05:37:42;5.97;;;2.60;;
6497;SDS011;3282;48.358;10.958;2022-08-21T05:40:09;5.38;;;2.80;;
6497;SDS011;3282;48.358;10.958;2022-08-21T05:42:51;6.05;;;2.40;;
6497;SDS011;3282;48.358;10.958;2022-08-21T05:45:25;3.72;;;2.15;;
6497;SDS011;3282;48.358;10.958;2022-08-21T05:48:14;5.50;;;2.33;;
6497;SDS011;3282;48.358;10.958;2022-08-21T05:50:48;5.47;;;2.25;;
6497;SDS011;3282;48.358;10.958;2022-08-21T05:53:16;4.20;;;2.17;;
6497;SDS011;3282;48.358;10.958;2022-08-21T05:55:44;3.67;;;2.22;;
6497;SDS011;3282;48.358;10.958;2022-08-21T05:58:16;5.95;;;2.20;;
6497;SDS011;3282;48.358;10.958;2022-08-21T06:00:46;4.18;;;2.20;;
6497;SDS011;3282;48.358;10.958;2022-08-21T06:03:15;5.80;;;2.33;;
6497;SDS011;3282;48.358;10.958;2022-08-21T06:05:50;5.55;;;2.10;;
6497;SDS011;3282;48.358;10.958;2022-08-21T06:08:18;4.00;;;2.17;;
6497;SDS011;3282;48.358;10.958;2022-08-21T06:10:46;4.75;;;2.47;;
6497;SDS011;3282;48.358;10.958;2022-08-21T06:13:14;3.35;;;2.03;;
6497;SDS011;3282;48.358;10.958;2022-08-21T06:15:43;3.28;;;2.15;;
6497;SDS011;3282;48.358;10.958;2022-08-21T06:18:13;3.40;;;1.92;;
6497;SDS011;3282;48.358;10.958;2022-08-21T06:20:40;4.70;;;2.30;;
6497;SDS011;3282;48.358;10.958;2022-08-21T06:23:07;3.55;;;2.08;;
6497;SDS011;3282;48.358;10.958;2022-08-21T06:25:34;3.35;;;1.90;;
6497;SDS011;3282;48.358;10.958;2022-08-21T06:28:05;4.15;;;2.17;;
6497;SDS011;3282;48.358;10.958;2022-08-21T06:30:37;4.32;;;2.10;;
6497;SDS011;3282;48.358;10.958;2022-08-21T06:33:05;4.78;;;2.10;;
6497;SDS011;3282;48.358;10.958;2022-08-21T06:35:33;4.18;;;2.10;;
6497;SDS011;3282;48.358;10.958;2022-08-21T06:38:00;3.67;;;2.00;;
6497;SDS011;3282;48.358;10.958;2022-08-21T06:40:28;5.30;;;2.13;;
6497;SDS011;3282;48.358;10.958;2022-08-21T06:42:58;3.63;;;2.08;;
6497;SDS011;3282;48.358;10.958;2022-08-21T06:45:35;4.15;;;1.98;;
6497;SDS011;3282;48.358;10.958;2022-08-21T06:48:02;4.00;;;2.40;;
6497;SDS011;3282;48.358;10.958;2022-08-21T06:50:29;4.43;;;2.35;;
6497;SDS011;3282;48.358;10.958;2022-08-21T06:52:59;3.92;;;2.10;;
6497;SDS011;3282;48.358;10.958;2022-08-21T06:55:27;4.60;;;2.30;;
6497;SDS011;3282;48.358;10.958;2022-08-21T06:57:54;4.88;;;2.63;;
6497;SDS011;3282;48.358;10.958;2022-08-21T07:00:21;4.40;;;2.40;;
6497;SDS011;3282;48.358;10.958;2022-08-21T07:02:48;5.80;;;2.70;;
6497;SDS011;3282;48.358;10.958;2022-08-21T07:05:14;5.10;;;2.55;;
6497;SDS011;3282;48.358;10.958;2022-08-21T07:07:44;4.78;;;2.70;;
6497;SDS011;3282;48.358;10.958;2022-08-21T07:10:12;5.65;;;2.63;;
6497;SDS011;3282;48.358;10.958;2022-08-21T07:12:49;3.72;;;2.50;;
6497;SDS011;3282;48.358;10.958;2022-08-21T07:15:26;4.43;;;2.63;;
6497;SDS011;3282;48.358;10.958;2022-08-21T07:17:57;4.72;;;2.70;;
6497;SDS011;3282;48.358;10.958;2022-08-21T07:20:25;4.95;;;3.20;;
6497;SDS011;3282;48.358;10.958;2022-08-21T07:22:53;5.40;;;3.08;;
6497;SDS011;3282;48.358;10.958;2022-08-21T07:25:21;11.15;;;2.90;;
6497;SDS011;3282;48.358;10.958;2022-08-21T07:27:48;5.40;;;2.92;;
6497;SDS011;3282;48.358;10.958;2022-08-21T07:30:15;5.32;;;2.90;;
6497;SDS011;3282;48.358;10.958;2022-08-21T07:32:42;6.07;;;3.08;;
6497;SDS011;3282;48.358;10.958;2022-08-21T07:35:08;4.70;;;3.03;;
6497;SDS011;3282;48.358;10.958;2022-08-21T07:37:35;7.85;;;3.00;;
6497;SDS011;3282;48.358;10.958;2022-08-21T07:40:02;5.82;;;3.00;;
6497;SDS011;3282;48.358;10.958;2022-08-21T07:42:29;7.55;;;3.20;;
6497;SDS011;3282;48.358;10.958;2022-08-21T07:44:56;4.68;;;3.30;;
6497;SDS011;3282;48.358;10.958;2022-08-21T07:47:22;5.32;;;3.15;;
6497;SDS011;3282;48.358;10.958;2022-08-21T07:50:08;5.05;;;3.03;;
6497;SDS011;3282;48.358;10.958;2022-08-21T07:52:38;7.68;;;3.40;;
6497;SDS011;3282;48.358;10.958;2022-08-21T07:55:06;6.60;;;2.92;;
6497;SDS011;3282;48.358;10.958;2022-08-21T07:57:34;5.53;;;3.40;;
6497;SDS011;3282;48.358;10.958;2022-08-21T08:00:03;5.55;;;3.13;;
6497;SDS011;3282;48.358;10.958;2022-08-21T08:02:37;5.53;;;3.70;;
6497;SDS011;3282;48.358;10.958;2022-08-21T08:05:05;10.57;;;3.70;;
6497;SDS011;3282;48.358;10.958;2022-08-21T08:07:35;6.80;;;3.50;;
6497;SDS011;3282;48.358;10.958;2022-08-21T08:10:02;5.63;;;3.58;;
6497;SDS011;3282;48.358;10.958;2022-08-21T08:12:33;4.88;;;3.38;;
6497;SDS011;3282;48.358;10.958;2022-08-21T08:15:01;5.78;;;3.20;;
6497;SDS011;3282;48.358;10.958;2022-08-21T08:17:28;5.30;;;3.70;;
6497;SDS011;3282;48.358;10.958;2022-08-21T08:19:54;6.70;;;4.03;;
6497;SDS011;3282;48.358;10.958;2022-08-21T08:22:22;8.63;;;4.82;;
6497;SDS011;3282;48.358;10.958;2022-08-21T08:24:52;5.93;;;3.90;;
6497;SDS011;3282;48.358;10.958;2022-08-21T08:27:20;6.45;;;4.20;;
6497;SDS011;3282;48.358;10.958;2022-08-21T08:29:47;5.82;;;4.13;;
6497;SDS011;3282;48.358;10.958;2022-08-21T08:32:13;6.32;;;3.95;;
6497;SDS011;3282;48.358;10.958;2022-08-21T08:34:41;5.97;;;3.67;;
6497;SDS011;3282;48.358;10.958;2022-08-21T08:37:08;6.68;;;3.92;;
6497;SDS011;3282;48.358;10.958;2022-08-21T08:39:36;5.13;;;3.28;;
6497;SDS011;3282;48.358;10.958;2022-08-21T08:44:55;5.88;;;3.85;;
6497;SDS011;3282;48.358;10.958;2022-08-21T08:47:25;4.68;;;3.60;;
6497;SDS011;3282;48.358;10.958;2022-08-21T08:50:11;6.38;;;3.80;;
6497;SDS011;3282;48.358;10.958;2022-08-21T08:52:44;5.97;;;3.60;;
6497;SDS011;3282;48.358;10.958;2022-08-21T08:55:20;6.07;;;4.05;;
6497;SDS011;3282;48.358;10.958;2022-08-21T08:57:52;5.80;;;3.83;;
6497;SDS011;3282;48.358;10.958;2022-08-21T09:00:21;6.10;;;3.60;;
6497;SDS011;3282;48.358;10.958;2022-08-21T09:02:50;8.13;;;4.53;;
6497;SDS011;3282;48.358;10.958;2022-08-21T09:05:28;6.63;;;4.20;;
6497;SDS011;3282;48.358;10.958;2022-08-21T09:21:41;7.25;;;3.70;;
6497;SDS011;3282;48.358;10.958;2022-08-21T09:29:31;4.90;;;3.75;;
6497;SDS011;3282;48.358;10.958;2022-08-21T09:32:02;6.35;;;3.40;;
6497;SDS011;3282;48.358;10.958;2022-08-21T09:34:35;6.00;;;3.70;;
6497;SDS011;3282;48.358;10.958;2022-08-21T09:37:02;9.63;;;4.00;;
6497;SDS011;3282;48.358;10.958;2022-08-21T09:39:30;5.25;;;3.70;;
6497;SDS011;3282;48.358;10.958;2022-08-21T09:42:07;5.47;;;2.97;;
6497;SDS011;3282;48.358;10.958;2022-08-21T09:44:36;4.78;;;3.30;;
6497;SDS011;3282;48.358;10.958;2022-08-21T09:47:07;5.97;;;3.72;;
6497;SDS011;3282;48.358;10.958;2022-08-21T09:49:37;6.90;;;3.53;;
6497;SDS011;3282;48.358;10.958;2022-08-21T09:52:19;6.88;;;3.28;;
6497;SDS011;3282;48.358;10.958;2022-08-21T09:54:50;5.03;;;3.25;;
6497;SDS011;3282;48.358;10.958;2022-08-21T09:57:22;4.38;;;3.35;;
6497;SDS011;3282;48.358;10.958;2022-08-21T10:02:50;4.25;;;3.40;;
6497;SDS011;3282;48.358;10.958;2022-08-21T10:05:18;5.95;;;3.38;;
6497;SDS011;3282;48.358;10.958;2022-08-21T10:07:50;4.65;;;3.30;;
6497;SDS011;3282;48.358;10.958;2022-08-21T10:10:19;6.43;;;3.95;;
6497;SDS011;3282;48.358;10.958;2022-08-21T10:21:10;8.60;;;3.80;;
6497;SDS011;3282;48.358;10.958;2022-08-21T10:24:19;4.95;;;3.50;;
6497;SDS011;3282;48.358;10.958;2022-08-21T10:29:51;5.47;;;3.55;;
6497;SDS011;3282;48.358;10.958;2022-08-21T10:32:30;7.38;;;3.92;;
6497;SDS011;3282;48.358;10.958;2022-08-21T10:35:26;5.97;;;3.88;;
6497;SDS011;3282;48.358;10.958;2022-08-21T10:43:58;6.80;;;3.88;;
6497;SDS011;3282;48.358;10.958;2022-08-21T10:55:12;5.38;;;3.45;;
6497;SDS011;3282;48.358;10.958;2022-08-21T10:57:45;6.25;;;3.60;;
6497;SDS011;3282;48.358;10.958;2022-08-21T11:00:17;6.97;;;3.17;;
6497;SDS011;3282;48.358;10.958;2022-08-21T11:03:07;5.13;;;2.70;;
6497;SDS011;3282;48.358;10.958;2022-08-21T11:05:45;6.70;;;3.05;;
6497;SDS011;3282;48.358;10.958;2022-08-21T11:08:23;5.60;;;2.90;;
6497;SDS011;3282;48.358;10.958;2022-08-21T11:11:15;5.90;;;3.20;;
6497;SDS011;3282;48.358;10.958;2022-08-21T11:13:49;6.07;;;3.10;;
6497;SDS011;3282;48.358;10.958;2022-08-21T11:16:37;8.18;;;3.03;;
6497;SDS011;3282;48.358;10.958;2022-08-21T11:19:09;5.90;;;2.70;;
6497;SDS011;3282;48.358;10.958;2022-08-21T11:21:47;5.95;;;2.67;;
6497;SDS011;3282;48.358;10.958;2022-08-21T11:29:31;6.72;;;3.17;;
6497;SDS011;3282;48.358;10.958;2022-08-21T11:32:03;5.57;;;2.70;;
6497;SDS011;3282;48.358;10.958;2022-08-21T11:34:50;5.55;;;2.50;;
6497;SDS011;3282;48.358;10.958;2022-08-21T11:43:17;7.20;;;2.90;;
6497;SDS011;3282;48.358;10.958;2022-08-21T11:45:50;4.68;;;2.90;;
6497;SDS011;3282;48.358;10.958;2022-08-21T11:48:40;7.72;;;3.30;;
6497;SDS011;3282;48.358;10.958;2022-08-21T11:51:11;5.78;;;2.80;;
6497;SDS011;3282;48.358;10.958;2022-08-21T11:54:02;5.60;;;2.80;;
6497;SDS011;3282;48.358;10.958;2022-08-21T11:56:40;7.10;;;2.92;;
6497;SDS011;3282;48.358;10.958;2022-08-21T11:59:16;6.10;;;2.92;;
6497;SDS011;3282;48.358;10.958;2022-08-21T12:01:50;4.13;;;2.58;;
6497;SDS011;3282;48.358;10.958;2022-08-21T12:04:21;6.70;;;2.92;;
6497;SDS011;3282;48.358;10.958;2022-08-21T12:07:08;4.05;;;2.75;;
6497;SDS011;3282;48.358;10.958;2022-08-21T12:09:36;4.68;;;2.58;;
6497;SDS011;3282;48.358;10.958;2022-08-21T12:12:11;5.38;;;2.90;;
6497;SDS011;3282;48.358;10.958;2022-08-21T12:20:26;7.85;;;2.75;;
6497;SDS011;3282;48.358;10.958;2022-08-21T12:23:16;6.82;;;2.53;;
6497;SDS011;3282;48.358;10.958;2022-08-21T12:25:58;6.63;;;3.20;;
6497;SDS011;3282;48.358;10.958;2022-08-21T12:28:32;5.85;;;2.75;;
6497;SDS011;3282;48.358;10.958;2022-08-21T12:31:00;5.47;;;2.80;;
6497;SDS011;3282;48.358;10.958;2022-08-21T12:33:30;6.20;;;3.15;;
6497;SDS011;3282;48.358;10.958;2022-08-21T12:36:05;5.13;;;2.92;;
6497;SDS011;3282;48.358;10.958;2022-08-21T12:38:47;4.28;;;2.60;;
6497;SDS011;3282;48.358;10.958;2022-08-21T12:44:42;5.32;;;2.60;;
6497;SDS011;3282;48.358;10.958;2022-08-21T12:47:27;4.68;;;2.60;;
6497;SDS011;3282;48.358;10.958;2022-08-21T12:50:03;4.90;;;2.60;;
6497;SDS011;3282;48.358;10.958;2022-08-21T12:52:34;5.22;;;2.58;;
6497;SDS011;3282;48.358;10.958;2022-08-21T12:55:06;7.10;;;2.78;;
6497;SDS011;3282;48.358;10.958;2022-08-21T12:57:51;5.00;;;2.88;;
6497;SDS011;3282;48.358;10.958;2022-08-21T13:00:23;4.45;;;2.70;;
6497;SDS011;3282;48.358;10.958;2022-08-21T13:02:52;4.55;;;2.75;;
6497;SDS011;3282;48.358;10.958;2022-08-21T13:07:51;6.78;;;2.80;;
6497;SDS011;3282;48.358;10.958;2022-08-21T13:10:26;8.52;;;2.95;;
6497;SDS011;3282;48.358;10.958;2022-08-21T13:12:58;4.72;;;2.70;;
6497;SDS011;3282;48.358;10.958;2022-08-21T13:15:38;5.90;;;2.80;;
6497;SDS011;3282;48.358;10.958;2022-08-21T13:18:23;6.22;;;2.75;;
6497;SDS011;3282;48.358;10.958;2022-08-21T13:20:51;6.65;;;3.13;;
6497;SDS011;3282;48.358;10.958;2022-08-21T13:23:34;4.60;;;2.60;;
6497;SDS011;3282;48.358;10.958;2022-08-21T13:26:00;4.88;;;2.70;;
6497;SDS011;3282;48.358;10.958;2022-08-21T13:28:43;5.25;;;2.80;;
6497;SDS011;3282;48.358;10.958;2022-08-21T13:31:17;5.35;;;2.80;;
6497;SDS011;3282;48.358;10.958;2022-08-21T13:33:47;5.32;;;2.80;;
6497;SDS011;3282;48.358;10.958;2022-08-21T13:36:18;6.47;;;2.92;;
6497;SDS011;3282;48.358;10.958;2022-08-21T13:38:50;5.15;;;2.75;;
6497;SDS011;3282;48.358;10.958;2022-08-21T13:41:29;4.55;;;2.67;;
6497;SDS011;3282;48.358;10.958;2022-08-21T13:44:00;9.13;;;2.90;;
6497;SDS011;3282;48.358;10.958;2022-08-21T13:46:33;5.13;;;2.70;;
6497;SDS011;3282;48.358;10.958;2022-08-21T13:49:02;4.05;;;2.60;;
6497;SDS011;3282;48.358;10.958;2022-08-21T13:51:31;4.90;;;2.70;;
6497;SDS011;3282;48.358;10.958;2022-08-21T13:53:58;4.60;;;2.70;;
6497;SDS011;3282;48.358;10.958;2022-08-21T13:56:29;5.43;;;2.78;;
6497;SDS011;3282;48.358;10.958;2022-08-21T13:59:07;4.00;;;2.40;;
6497;SDS011;3282;48.358;10.958;2022-08-21T14:01:49;6.75;;;2.70;;
6497;SDS011;3282;48.358;10.958;2022-08-21T14:04:44;4.97;;;2.53;;
6497;SDS011;3282;48.358;10.958;2022-08-21T14:07:19;4.75;;;2.50;;
6497;SDS011;3282;48.358;10.958;2022-08-21T14:09:52;6.50;;;2.42;;
6497;SDS011;3282;48.358;10.958;2022-08-21T14:12:26;5.75;;;2.50;;
6497;SDS011;3282;48.358;10.958;2022-08-21T14:14:55;4.63;;;2.70;;
6497;SDS011;3282;48.358;10.958;2022-08-21T14:17:27;5.68;;;2.70;;
6497;SDS011;3282;48.358;10.958;2022-08-21T14:19:59;5.57;;;2.80;;
6497;SDS011;3282;48.358;10.958;2022-08-21T14:22:37;5.45;;;2.50;;
6497;SDS011;3282;48.358;10.958;2022-08-21T14:27:43;4.40;;;2.50;;
6497;SDS011;3282;48.358;10.958;2022-08-21T14:32:50;6.30;;;2.33;;
6497;SDS011;3282;48.358;10.958;2022-08-21T14:35:17;4.45;;;2.40;;
6497;SDS011;3282;48.358;10.958;2022-08-21T14:37:49;5.70;;;2.65;;
6497;SDS011;3282;48.358;10.958;2022-08-21T14:40:21;6.18;;;2.75;;
6497;SDS011;3282;48.358;10.958;2022-08-21T14:42:49;6.32;;;3.03;;
6497;SDS011;3282;48.358;10.958;2022-08-21T14:45:17;5.28;;;2.50;;
6497;SDS011;3282;48.358;10.958;2022-08-21T14:47:55;4.72;;;2.47;;
6497;SDS011;3282;48.358;10.958;2022-08-21T14:50:22;4.85;;;2.50;;
6497;SDS011;3282;48.358;10.958;2022-08-21T14:52:53;4.55;;;2.40;;
6497;SDS011;3282;48.358;10.958;2022-08-21T14:55:19;8.90;;;2.70;;
6497;SDS011;3282;48.358;10.958;2022-08-21T14:57:47;4.03;;;2.45;;
6497;SDS011;3282;48.358;10.958;2022-08-21T15:00:19;4.95;;;2.60;;
6497;SDS011;3282;48.358;10.958;2022-08-21T15:03:00;6.20;;;3.17;;
6497;SDS011;3282;48.358;10.958;2022-08-21T15:05:28;5.45;;;2.70;;
6497;SDS011;3282;48.358;10.958;2022-08-21T15:07:59;4.75;;;3.00;;
6497;SDS011;3282;48.358;10.958;2022-08-21T15:10:27;5.63;;;2.80;;
6497;SDS011;3282;48.358;10.958;2022-08-21T15:12:58;5.68;;;2.92;;
6497;SDS011;3282;48.358;10.958;2022-08-21T15:15:25;5.30;;;3.30;;
6497;SDS011;3282;48.358;10.958;2022-08-21T15:17:52;4.70;;;3.13;;
6497;SDS011;3282;48.358;10.958;2022-08-21T15:20:18;5.43;;;2.90;;
6497;SDS011;3282;48.358;10.958;2022-08-21T15:22:45;7.55;;;3.10;;
6497;SDS011;3282;48.358;10.958;2022-08-21T15:25:15;4.72;;;2.92;;
6497;SDS011;3282;48.358;10.958;2022-08-21T15:27:43;6.78;;;3.00;;
6497;SDS011;3282;48.358;10.958;2022-08-21T15:30:10;5.75;;;2.90;;
6497;SDS011;3282;48.358;10.958;2022-08-21T15:32:37;5.97;;;2.92;;
6497;SDS011;3282;48.358;10.958;2022-08-21T15:35:04;7.10;;;2.80;;
6497;SDS011;3282;48.358;10.958;2022-08-21T15:37:31;6.40;;;2.80;;
6497;SDS011;3282;48.358;10.958;2022-08-21T15:39:58;5.03;;;3.10;;
6497;SDS011;3282;48.358;10.958;2022-08-21T15:42:27;4.82;;;2.90;;
6497;SDS011;3282;48.358;10.958;2022-08-21T15:44:59;7.30;;;2.85;;
6497;SDS011;3282;48.358;10.958;2022-08-21T15:47:28;6.60;;;2.83;;
6497;SDS011;3282;48.358;10.958;2022-08-21T15:49:59;8.95;;;3.20;;
6497;SDS011;3282;48.358;10.958;2022-08-21T15:52:28;9.90;;;3.25;;
6497;SDS011;3282;48.358;10.958;2022-08-21T15:54:54;4.85;;;3.03;;
6497;SDS011;3282;48.358;10.958;2022-08-21T15:57:28;5.18;;;3.00;;
6497;SDS011;3282;48.358;10.958;2022-08-21T16:03:26;4.68;;;2.75;;
6497;SDS011;3282;48.358;10.958;2022-08-21T16:05:54;6.28;;;3.05;;
6497;SDS011;3282;48.358;10.958;2022-08-21T16:08:25;7.35;;;3.10;;
6497;SDS011;3282;48.358;10.958;2022-08-21T16:10:52;5.63;;;2.90;;
6497;SDS011;3282;48.358;10.958;2022-08-21T16:13:23;7.60;;;2.80;;
6497;SDS011;3282;48.358;10.958;2022-08-21T16:15:52;5.68;;;2.88;;
6497;SDS011;3282;48.358;10.958;2022-08-21T16:18:19;6.22;;;3.05;;
6497;SDS011;3282;48.358;10.958;2022-08-21T16:20:46;5.63;;;2.97;;
6497;SDS011;3282;48.358;10.958;2022-08-21T16:23:13;5.07;;;3.15;;
6497;SDS011;3282;48.358;10.958;2022-08-21T16:25:40;4.95;;;2.85;;
6497;SDS011;3282;48.358;10.958;2022-08-21T16:28:08;4.22;;;2.70;;
6497;SDS011;3282;48.358;10.958;2022-08-21T16:30:39;5.82;;;2.63;;
6497;SDS011;3282;48.358;10.958;2022-08-21T16:33:20;6.97;;;2.85;;
6497;SDS011;3282;48.358;10.958;2022-08-21T16:36:02;5.22;;;2.55;;
6497;SDS011;3282;48.358;10.958;2022-08-21T16:38:31;4.13;;;2.60;;
6497;SDS011;3282;48.358;10.958;2022-08-21T16:41:03;7.43;;;2.90;;
6497;SDS011;3282;48.358;10.958;2022-08-21T16:43:34;6.77;;;2.73;;
6497;SDS011;3282;48.358;10.958;2022-08-21T16:46:01;5.43;;;2.60;;
6497;SDS011;3282;48.358;10.958;2022-08-21T16:48:31;4.10;;;2.50;;
6497;SDS011;3282;48.358;10.958;2022-08-21T16:51:03;4.95;;;2.70;;